Time;durP1;ratioP1;P1;durP2;ratioP2;P2;SDS_P1;SDS_P2;PMS_P1;PMS_P2;Temp;Humidity;BMP_temperature;BMP_pressure;BME280_temperature;BME280_humidity;BME280_pressure;Samples;Min_cycle;Max_cycle;Signal;HPM_P1;HPM_P2
2022/07/26 00:03:53;;;;;;;6.30;5.70;;;;;;;;;;10195144;28;20042;-60
2022/07/26 00:08:53;;;;;;;6.75;6.05;;;;;;;;;;10195108;28;20525;-59
2022/07/26 00:13:51;;;;;;;6.95;6.35;;;;;;;;;;10194135;28;20089;-58
2022/07/26 00:18:49;;;;;;;7.32;6.60;;;;;;;;;;10194159;28;20100;-58
2022/07/26 00:23:48;;;;;;;7.22;6.53;;;;;;;;;;10193739;28;20074;-58
2022/07/26 00:28:47;;;;;;;8.57;7.63;;;;;;;;;;10194579;28;20171;-58
2022/07/26 00:33:46;;;;;;;6.75;6.18;;;;;;;;;;10193857;28;20522;-60
2022/07/26 00:38:44;;;;;;;7.30;6.60;;;;;;;;;;10194101;28;20052;-59
2022/07/26 00:43:54;;;;;;;7.38;6.35;;;;;;;;;;10193783;28;20046;-58
2022/07/26 00:48:52;;;;;;;7.55;6.15;;;;;;;;;;10194332;28;20042;-58
2022/07/26 00:53:51;;;;;;;7.57;6.72;;;;;;;;;;10193569;28;20082;-58
2022/07/26 00:58:49;;;;;;;11.50;6.82;;;;;;;;;;10193697;28;20085;-58
2022/07/26 01:03:52;;;;;;;7.85;7.03;;;;;;;;;;10198489;28;20136;-58
2022/07/26 01:08:50;;;;;;;10.77;6.47;;;;;;;;;;10202288;28;20236;-58
2022/07/26 01:13:48;;;;;;;7.47;6.75;;;;;;;;;;10202077;28;20077;-58
2022/07/26 01:18:47;;;;;;;8.00;7.22;;;;;;;;;;10201100;28;20054;-58
2022/07/26 01:23:46;;;;;;;7.35;6.75;;;;;;;;;;10201572;28;20085;-58
2022/07/26 01:28:45;;;;;;;7.78;7.18;;;;;;;;;;10201212;28;20038;-57
2022/07/26 01:33:43;;;;;;;9.30;6.65;;;;;;;;;;10201275;28;20076;-58
2022/07/26 01:38:42;;;;;;;8.20;6.82;;;;;;;;;;10200688;28;20553;-58
2022/07/26 01:43:42;;;;;;;7.78;6.93;;;;;;;;;;10200619;28;20081;-59
2022/07/26 01:48:40;;;;;;;8.45;7.65;;;;;;;;;;10199850;28;20052;-60
2022/07/26 01:53:38;;;;;;;8.63;7.93;;;;;;;;;;10200032;28;20507;-60
2022/07/26 01:58:37;;;;;;;8.35;7.57;;;;;;;;;;10199998;28;20049;-60
2022/07/26 02:03:36;;;;;;;8.43;7.63;;;;;;;;;;10199712;28;20054;-59
2022/07/26 02:08:35;;;;;;;10.82;7.63;;;;;;;;;;10199246;28;20073;-59
2022/07/26 02:13:35;;;;;;;8.25;7.53;;;;;;;;;;10198057;28;20157;-61
2022/07/26 02:18:34;;;;;;;9.60;8.40;;;;;;;;;;10197771;28;20050;-60
2022/07/26 02:23:34;;;;;;;8.68;7.32;;;;;;;;;;10198511;28;20042;-59
2022/07/26 02:28:37;;;;;;;9.05;8.25;;;;;;;;;;10198598;28;20069;-60
2022/07/26 02:33:35;;;;;;;8.98;8.13;;;;;;;;;;10198030;28;20073;-60
2022/07/26 02:38:35;;;;;;;9.80;8.80;;;;;;;;;;10197270;28;20497;-61
2022/07/26 02:43:33;;;;;;;9.43;8.57;;;;;;;;;;10196402;28;20396;-60
2022/07/26 02:48:32;;;;;;;9.20;8.30;;;;;;;;;;10197886;28;20062;-60
2022/07/26 02:53:30;;;;;;;9.23;8.40;;;;;;;;;;10198022;28;20089;-60
2022/07/26 02:58:30;;;;;;;9.43;8.63;;;;;;;;;;10197694;28;20042;-60
2022/07/26 03:03:28;;;;;;;9.85;8.70;;;;;;;;;;10198014;28;20605;-60
2022/07/26 03:08:26;;;;;;;8.98;8.07;;;;;;;;;;10197683;28;20069;-59
2022/07/26 03:13:24;;;;;;;9.73;8.82;;;;;;;;;;10196869;28;20073;-60
2022/07/26 03:18:24;;;;;;;8.65;7.82;;;;;;;;;;10197026;28;20057;-60
2022/07/26 03:23:22;;;;;;;9.50;8.60;;;;;;;;;;10196614;28;20085;-60
2022/07/26 03:28:21;;;;;;;10.10;8.30;;;;;;;;;;10196047;28;20403;-60
2022/07/26 03:33:19;;;;;;;10.38;8.90;;;;;;;;;;10195957;28;20221;-60
2022/07/26 03:38:19;;;;;;;9.50;8.60;;;;;;;;;;10196195;28;20080;-60
2022/07/26 03:43:18;;;;;;;8.88;8.07;;;;;;;;;;10196461;28;20065;-60
2022/07/26 03:48:20;;;;;;;9.40;8.60;;;;;;;;;;10194466;28;20057;-60
2022/07/26 03:53:20;;;;;;;9.38;8.57;;;;;;;;;;10195790;28;20332;-60
2022/07/26 03:58:18;;;;;;;11.15;7.82;;;;;;;;;;10195354;28;20070;-61
2022/07/26 04:03:16;;;;;;;9.10;8.30;;;;;;;;;;10194696;28;20070;-60
2022/07/26 04:08:15;;;;;;;9.70;8.80;;;;;;;;;;10195649;28;20057;-60
2022/07/26 04:13:14;;;;;;;8.75;7.95;;;;;;;;;;10172646;28;20070;-59
2022/07/26 04:18:14;;;;;;;11.60;9.60;;;;;;;;;;10182647;28;20062;-61
2022/07/26 04:23:12;;;;;;;11.13;9.48;;;;;;;;;;10169662;28;20135;-60
2022/07/26 04:28:11;;;;;;;12.82;11.48;;;;;;;;;;10170862;28;20584;-60
2022/07/26 04:33:10;;;;;;;10.95;8.13;;;;;;;;;;10193130;28;20070;-59
2022/07/26 04:38:08;;;;;;;8.40;7.55;;;;;;;;;;10169860;28;20042;-60
2022/07/26 04:43:07;;;;;;;9.60;8.70;;;;;;;;;;10153972;28;20042;-59
2022/07/26 04:48:07;;;;;;;13.27;8.95;;;;;;;;;;10165963;28;20571;-60
2022/07/26 04:53:07;;;;;;;10.20;8.75;;;;;;;;;;10157201;28;20081;-60
2022/07/26 04:58:06;;;;;;;10.15;8.52;;;;;;;;;;10171540;28;20427;-59
2022/07/26 05:03:04;;;;;;;9.70;8.70;;;;;;;;;;10189558;28;20452;-60
2022/07/26 05:08:03;;;;;;;8.73;7.93;;;;;;;;;;10188739;28;20494;-59
2022/07/26 05:13:03;;;;;;;9.05;7.50;;;;;;;;;;10187807;28;20096;-60
2022/07/26 05:18:02;;;;;;;8.50;7.80;;;;;;;;;;10174398;28;20080;-60
2022/07/26 05:23:05;;;;;;;11.23;8.32;;;;;;;;;;10132734;28;20070;-60
2022/07/26 05:28:05;;;;;;;10.02;8.52;;;;;;;;;;10165468;28;20069;-60
2022/07/26 05:33:03;;;;;;;12.38;8.95;;;;;;;;;;10162676;28;20070;-60
2022/07/26 05:38:01;;;;;;;15.23;10.70;;;;;;;;;;10177186;28;20077;-60
2022/07/26 05:43:00;;;;;;;14.30;10.13;;;;;;;;;;10161739;28;20074;-60
2022/07/26 05:47:59;;;;;;;12.68;9.45;;;;;;;;;;10148763;28;20484;-60
2022/07/26 05:52:58;;;;;;;15.20;9.80;;;;;;;;;;10163417;28;20069;-60
2022/07/26 05:57:56;;;;;;;10.15;9.15;;;;;;;;;;10168209;28;20073;-59
2022/07/26 06:02:54;;;;;;;11.70;8.80;;;;;;;;;;10180965;28;20066;-60
2022/07/26 06:07:54;;;;;;;9.45;8.65;;;;;;;;;;10166947;28;20066;-59
2022/07/26 06:12:52;;;;;;;12.35;10.10;;;;;;;;;;10155718;28;20078;-60
2022/07/26 06:17:51;;;;;;;9.40;8.20;;;;;;;;;;10155424;28;20100;-60
2022/07/26 06:22:50;;;;;;;13.23;8.73;;;;;;;;;;10153503;28;20076;-59
2022/07/26 06:27:50;;;;;;;12.68;11.45;;;;;;;;;;10150743;28;20507;-59
2022/07/26 06:32:48;;;;;;;10.57;9.20;;;;;;;;;;10151275;28;20081;-59
2022/07/26 06:37:46;;;;;;;12.18;10.93;;;;;;;;;;10155838;28;20078;-60
2022/07/26 06:42:45;;;;;;;11.20;10.13;;;;;;;;;;10157781;28;20531;-59
2022/07/26 06:47:44;;;;;;;12.95;10.35;;;;;;;;;;10156638;28;20070;-58
2022/07/26 06:52:43;;;;;;;16.05;10.80;;;;;;;;;;10149502;28;20113;-60
2022/07/26 06:57:45;;;;;;;12.25;9.55;;;;;;;;;;10150965;28;20074;-59
2022/07/26 07:02:49;;;;;;;11.10;10.10;;;;;;;;;;10149848;28;20078;-60
2022/07/26 07:07:47;;;;;;;12.10;8.85;;;;;;;;;;10150092;28;20500;-60
2022/07/26 07:12:45;;;;;;;19.88;10.15;;;;;;;;;;10146155;28;20085;-60
2022/07/26 07:17:44;;;;;;;10.55;9.55;;;;;;;;;;10145454;28;20089;-58
2022/07/26 07:22:43;;;;;;;12.43;9.55;;;;;;;;;;10149730;28;20585;-59
2022/07/26 07:27:42;;;;;;;13.70;8.85;;;;;;;;;;10156176;28;20046;-59
2022/07/26 07:32:40;;;;;;;18.13;11.52;;;;;;;;;;10155482;28;20038;-60
2022/07/26 07:37:41;;;;;;;14.27;12.73;;;;;;;;;;10156356;28;20042;-60
2022/07/26 07:42:52;;;;;;;11.20;9.23;;;;;;;;;;10155590;28;20267;-59
2022/07/26 07:47:50;;;;;;;12.40;8.27;;;;;;;;;;10155313;28;20503;-59
2022/07/26 07:52:49;;;;;;;12.50;8.13;;;;;;;;;;10154505;28;20073;-60
2022/07/26 07:57:47;;;;;;;10.90;7.70;;;;;;;;;;10155316;28;20057;-60
2022/07/26 08:02:47;;;;;;;8.93;7.07;;;;;;;;;;10154910;28;20062;-59
2022/07/26 08:07:45;;;;;;;9.70;7.75;;;;;;;;;;10153516;28;20503;-60
2022/07/26 08:12:44;;;;;;;7.45;6.80;;;;;;;;;;10154059;28;20078;-59
2022/07/26 08:17:42;;;;;;;9.65;7.20;;;;;;;;;;10154405;28;20100;-60
2022/07/26 08:22:45;;;;;;;;;;;;;;;;;;10153640;28;20524;-59
2022/07/26 08:27:45;;;;;;;7.00;6.30;;;;;;;;;;10153132;28;20379;-60
2022/07/26 08:33:00;;;;;;;10.23;6.20;;;;;;;;;;10153413;28;20088;-60
2022/07/26 08:37:59;;;;;;;7.45;6.65;;;;;;;;;;10153723;28;20073;-60
2022/07/26 08:42:58;;;;;;;8.68;6.43;;;;;;;;;;10154068;28;20046;-60
2022/07/26 08:47:57;;;;;;;10.05;6.45;;;;;;;;;;10153091;28;20467;-60
2022/07/26 08:53:15;;;;;;;7.35;6.65;;;;;;;;;;10153002;28;20096;-61
2022/07/26 08:58:15;;;;;;;7.47;6.68;;;;;;;;;;10154113;28;20086;-61
2022/07/26 09:03:24;;;;;;;9.50;7.78;;;;;;;;;;10152410;28;20404;-64
2022/07/26 09:08:23;;;;;;;7.00;5.95;;;;;;;;;;10152892;28;20086;-61
2022/07/26 09:13:23;;;;;;;7.50;6.80;;;;;;;;;;10152819;28;20072;-60
2022/07/26 09:18:25;;;;;;;9.32;6.13;;;;;;;;;;10152442;28;20081;-60
2022/07/26 09:23:23;;;;;;;11.63;7.15;;;;;;;;;;10155066;28;20065;-60
2022/07/26 09:28:24;;;;;;;10.23;7.63;;;;;;;;;;10161080;28;20503;-59
2022/07/26 09:33:23;;;;;;;7.45;6.75;;;;;;;;;;10160125;28;20554;-60
2022/07/26 09:38:23;;;;;;;9.02;6.10;;;;;;;;;;10160501;28;20042;-59
2022/07/26 09:43:23;;;;;;;6.60;6.00;;;;;;;;;;10160672;28;20109;-59
2022/07/26 09:48:26;;;;;;;7.53;6.10;;;;;;;;;;10160444;28;20082;-60
2022/07/26 09:53:39;;;;;;;8.55;6.78;;;;;;;;;;10158806;28;20082;-60
2022/07/26 09:58:38;;;;;;;7.28;6.22;;;;;;;;;;10159074;28;20082;-60
2022/07/26 10:03:37;;;;;;;6.63;5.93;;;;;;;;;;10159320;28;20073;-60
2022/07/26 10:08:37;;;;;;;6.75;6.15;;;;;;;;;;10158853;28;20062;-60
2022/07/26 10:13:36;;;;;;;7.32;6.63;;;;;;;;;;10158594;28;20081;-61
2022/07/26 10:18:46;;;;;;;8.18;6.57;;;;;;;;;;10157792;28;20086;-60
2022/07/26 10:23:46;;;;;;;9.20;6.72;;;;;;;;;;10157100;28;20074;-60
2022/07/26 10:28:45;;;;;;;7.18;6.43;;;;;;;;;;10158291;28;20123;-60
2022/07/26 10:33:44;;;;;;;8.48;7.05;;;;;;;;;;10157593;28;20073;-59
2022/07/26 10:38:57;;;;;;;7.10;6.53;;;;;;;;;;10156336;28;20070;-58
2022/07/26 10:44:11;;;;;;;6.80;6.22;;;;;;;;;;10157798;28;20540;-61
2022/07/26 10:49:18;;;;;;;6.85;6.28;;;;;;;;;;10157100;28;20085;-59
2022/07/26 10:54:18;;;;;;;7.80;7.00;;;;;;;;;;10156492;28;20078;-60
2022/07/26 10:59:30;;;;;;;7.47;6.72;;;;;;;;;;10157374;28;20080;-61
2022/07/26 11:04:49;;;;;;;6.40;5.80;;;;;;;;;;10156991;28;20054;-58
2022/07/26 11:09:48;;;;;;;9.20;6.40;;;;;;;;;;10157423;28;20077;-60
2022/07/26 11:14:47;;;;;;;6.93;6.32;;;;;;;;;;10155912;28;20085;-61
2022/07/26 11:19:45;;;;;;;7.57;6.93;;;;;;;;;;10156381;28;20078;-60
2022/07/26 11:24:44;;;;;;;7.25;6.60;;;;;;;;;;10157072;28;20089;-59
2022/07/26 11:29:43;;;;;;;7.70;6.40;;;;;;;;;;10156645;28;20042;-60
2022/07/26 11:34:46;;;;;;;7.28;6.63;;;;;;;;;;10155598;28;20181;-59
2022/07/26 11:39:46;;;;;;;6.28;5.75;;;;;;;;;;10156606;28;20050;-61
2022/07/26 11:44:47;;;;;;;7.78;7.00;;;;;;;;;;10155434;28;20096;-59
2022/07/26 11:49:45;;;;;;;6.82;6.18;;;;;;;;;;10155316;28;20039;-60
2022/07/26 11:55:04;;;;;;;7.82;7.05;;;;;;;;;;10154664;28;20132;-60
2022/07/26 12:00:05;;;;;;;6.75;6.15;;;;;;;;;;10155523;28;20058;-61
2022/07/26 12:05:12;;;;;;;6.82;6.20;;;;;;;;;;10155544;28;20058;-59
2022/07/26 12:10:15;;;;;;;6.70;5.45;;;;;;;;;;10154561;28;20050;-60
2022/07/26 12:15:15;;;;;;;12.75;7.32;;;;;;;;;;10154940;28;20088;-60
2022/07/26 12:20:15;;;;;;;8.40;7.22;;;;;;;;;;10154586;28;20054;-59
2022/07/26 12:25:24;;;;;;;7.60;6.90;;;;;;;;;;10154387;28;20086;-61
2022/07/26 12:30:24;;;;;;;7.38;6.68;;;;;;;;;;10155468;28;20081;-61
2022/07/26 12:35:31;;;;;;;7.65;6.95;;;;;;;;;;10153655;28;20054;-61
2022/07/26 12:40:30;;;;;;;6.57;5.97;;;;;;;;;;10155253;28;20469;-61
2022/07/26 12:45:31;;;;;;;7.40;6.65;;;;;;;;;;10154838;28;20408;-61
2022/07/26 12:50:31;;;;;;;6.70;5.75;;;;;;;;;;10154293;28;20100;-61
2022/07/26 12:55:30;;;;;;;10.02;7.22;;;;;;;;;;10153796;28;20081;-61
2022/07/26 13:00:30;;;;;;;6.95;6.22;;;;;;;;;;10153554;28;20516;-61
2022/07/26 13:05:30;;;;;;;8.52;5.90;;;;;;;;;;10153762;28;20408;-61
2022/07/26 13:10:28;;;;;;;6.70;6.18;;;;;;;;;;10153836;28;20054;-61
2022/07/26 13:15:33;;;;;;;5.65;5.15;;;;;;;;;;10152408;28;20081;-58
2022/07/26 13:20:33;;;;;;;7.63;4.90;;;;;;;;;;10152867;28;20085;-59
2022/07/26 13:25:31;;;;;;;6.57;5.97;;;;;;;;;;10153602;28;20069;-61
2022/07/26 13:30:41;;;;;;;6.78;6.18;;;;;;;;;;10153627;28;20062;-60
2022/07/26 13:35:41;;;;;;;6.35;5.75;;;;;;;;;;10153702;28;20519;-60
2022/07/26 13:40:39;;;;;;;6.57;5.97;;;;;;;;;;10153157;28;20088;-61
2022/07/26 13:45:39;;;;;;;6.72;6.13;;;;;;;;;;10153522;28;20081;-61
2022/07/26 13:50:37;;;;;;;6.30;5.70;;;;;;;;;;10153757;28;20501;-61
2022/07/26 13:55:36;;;;;;;7.13;6.28;;;;;;;;;;10153004;28;20101;-61
2022/07/26 14:00:34;;;;;;;7.55;6.57;;;;;;;;;;10152400;28;20034;-61
2022/07/26 14:05:34;;;;;;;6.25;5.22;;;;;;;;;;10152541;28;20070;-61
2022/07/26 14:10:36;;;;;;;6.15;5.65;;;;;;;;;;10156065;28;20049;-61
2022/07/26 14:15:35;;;;;;;5.90;5.40;;;;;;;;;;10159986;28;20074;-61
2022/07/26 14:20:35;;;;;;;6.53;5.40;;;;;;;;;;10158829;28;20484;-61
2022/07/26 14:25:33;;;;;;;9.65;6.68;;;;;;;;;;10159685;28;20054;-61
2022/07/26 14:30:32;;;;;;;7.22;6.30;;;;;;;;;;10158935;28;20046;-61
2022/07/26 14:35:30;;;;;;;5.97;5.50;;;;;;;;;;10158667;28;20077;-61
2022/07/26 14:40:30;;;;;;;7.43;6.55;;;;;;;;;;10158749;28;20074;-61
2022/07/26 14:45:28;;;;;;;6.00;5.43;;;;;;;;;;10158731;28;20487;-61
2022/07/26 14:50:26;;;;;;;6.55;5.90;;;;;;;;;;10158519;28;20443;-61
2022/07/26 14:55:25;;;;;;;8.43;6.05;;;;;;;;;;10157089;28;20085;-61
2022/07/26 15:00:25;;;;;;;5.70;5.20;;;;;;;;;;10158746;28;20066;-61
2022/07/26 15:05:25;;;;;;;5.15;4.75;;;;;;;;;;10157955;28;20073;-61
2022/07/26 15:10:29;;;;;;;6.30;5.53;;;;;;;;;;10158032;28;20089;-61
2022/07/26 15:15:29;;;;;;;5.50;5.00;;;;;;;;;;10157548;28;20039;-61
2022/07/26 15:20:27;;;;;;;5.28;4.88;;;;;;;;;;10156242;28;20085;-61
2022/07/26 15:25:26;;;;;;;5.68;5.05;;;;;;;;;;10157120;28;20177;-61
2022/07/26 15:30:24;;;;;;;6.20;5.30;;;;;;;;;;10157178;28;20050;-61
2022/07/26 15:35:24;;;;;;;6.63;5.47;;;;;;;;;;10156754;28;20046;-61
2022/07/26 15:40:23;;;;;;;6.00;5.05;;;;;;;;;;10155564;28;20085;-61
2022/07/26 15:45:21;;;;;;;5.70;5.30;;;;;;;;;;10156525;28;20074;-61
2022/07/26 15:50:22;;;;;;;5.85;5.45;;;;;;;;;;10156669;28;20042;-59
2022/07/26 15:55:21;;;;;;;6.68;6.15;;;;;;;;;;10155727;28;20081;-60
2022/07/26 16:00:20;;;;;;;8.05;7.07;;;;;;;;;;10155933;28;20085;-60
2022/07/26 16:05:18;;;;;;;5.72;5.18;;;;;;;;;;10156600;28;20042;-60
2022/07/26 16:10:16;;;;;;;7.25;5.28;;;;;;;;;;10155535;28;20069;-61
2022/07/26 16:15:16;;;;;;;5.80;5.22;;;;;;;;;;10155001;28;20086;-60
2022/07/26 16:20:18;;;;;;;6.25;5.60;;;;;;;;;;10155157;28;20097;-60
2022/07/26 16:25:16;;;;;;;6.20;5.60;;;;;;;;;;10155330;28;20051;-61
2022/07/26 16:30:16;;;;;;;6.60;5.70;;;;;;;;;;10155001;28;20070;-60
2022/07/26 16:35:14;;;;;;;7.80;7.03;;;;;;;;;;10154781;28;20074;-61
2022/07/26 16:40:13;;;;;;;11.10;7.15;;;;;;;;;;10154761;28;20073;-60
2022/07/26 16:45:11;;;;;;;8.23;7.47;;;;;;;;;;10154654;28;20086;-60
2022/07/26 16:50:11;;;;;;;7.82;7.03;;;;;;;;;;10153845;28;20085;-60
2022/07/26 16:55:22;;;;;;;9.27;8.38;;;;;;;;;;10154410;28;20074;-59
2022/07/26 17:00:21;;;;;;;9.05;7.18;;;;;;;;;;10154671;28;20085;-59
2022/07/26 17:05:20;;;;;;;16.38;10.55;;;;;;;;;;10152460;28;20085;-58
2022/07/26 17:10:19;;;;;;;9.93;8.88;;;;;;;;;;10153918;28;20050;-59
2022/07/26 17:15:17;;;;;;;12.05;10.95;;;;;;;;;;10153953;28;20531;-59
2022/07/26 17:20:16;;;;;;;11.05;10.00;;;;;;;;;;10153153;28;20577;-58
2022/07/26 17:25:15;;;;;;;13.77;9.77;;;;;;;;;;10154038;28;20047;-58
2022/07/26 17:30:14;;;;;;;11.93;10.73;;;;;;;;;;10153408;28;20475;-59
2022/07/26 17:35:12;;;;;;;10.93;9.93;;;;;;;;;;10153582;28;20082;-58
2022/07/26 17:40:11;;;;;;;10.85;9.93;;;;;;;;;;10153968;28;20089;-59
2022/07/26 17:45:11;;;;;;;10.40;9.50;;;;;;;;;;10155677;28;20088;-59
2022/07/26 17:50:10;;;;;;;9.65;8.65;;;;;;;;;;10161483;28;20073;-59
2022/07/26 17:55:29;;;;;;;14.82;13.15;;;;;;;;;;10161140;28;20055;-58
2022/07/26 18:00:28;;;;;;;12.30;11.20;;;;;;;;;;10160837;28;20086;-58
2022/07/26 18:05:27;;;;;;;9.75;8.85;;;;;;;;;;10161018;28;20081;-58
2022/07/26 18:10:34;;;;;;;7.70;7.07;;;;;;;;;;10160517;28;20558;-58
2022/07/26 18:15:33;;;;;;;8.80;7.60;;;;;;;;;;10160230;28;20050;-59
2022/07/26 18:20:32;;;;;;;8.63;7.82;;;;;;;;;;10159319;28;20092;-59
2022/07/26 18:25:30;;;;;;;8.07;7.38;;;;;;;;;;10159764;28;20133;-58
2022/07/26 18:30:30;;;;;;;7.88;7.28;;;;;;;;;;10159316;28;20074;-58
2022/07/26 18:35:31;;;;;;;8.15;7.45;;;;;;;;;;10159308;28;20424;-59
2022/07/26 18:40:31;;;;;;;8.68;7.78;;;;;;;;;;10159163;28;20082;-59
2022/07/26 18:45:29;;;;;;;9.40;8.50;;;;;;;;;;10159131;28;20074;-58
2022/07/26 18:50:28;;;;;;;9.43;6.97;;;;;;;;;;10159546;28;20084;-58
2022/07/26 18:55:30;;;;;;;8.35;7.55;;;;;;;;;;10157735;28;20073;-58
2022/07/26 19:00:29;;;;;;;8.95;8.25;;;;;;;;;;10158321;28;20078;-58
2022/07/26 19:05:27;;;;;;;11.35;8.63;;;;;;;;;;10158126;28;20050;-59
2022/07/26 19:10:34;;;;;;;12.32;7.53;;;;;;;;;;10158097;28;20054;-58
2022/07/26 19:15:32;;;;;;;9.27;8.38;;;;;;;;;;10158134;28;20085;-58
2022/07/26 19:20:32;;;;;;;9.10;8.10;;;;;;;;;;10156807;28;20096;-59
2022/07/26 19:25:31;;;;;;;8.93;8.13;;;;;;;;;;10157852;28;20582;-59
2022/07/26 19:30:30;;;;;;;8.38;7.68;;;;;;;;;;10157395;28;20042;-59
2022/07/26 19:35:29;;;;;;;9.13;8.20;;;;;;;;;;10156756;28;20078;-59
2022/07/26 19:40:29;;;;;;;7.68;7.07;;;;;;;;;;10154881;28;20088;-59
2022/07/26 19:45:27;;;;;;;9.02;8.20;;;;;;;;;;10156390;28;20074;-58
2022/07/26 19:50:27;;;;;;;8.93;8.23;;;;;;;;;;10156888;28;20042;-58
2022/07/26 19:55:25;;;;;;;8.48;7.75;;;;;;;;;;10155625;28;20077;-58
2022/07/26 20:00:23;;;;;;;7.65;7.05;;;;;;;;;;10155051;28;20077;-58
2022/07/26 20:05:22;;;;;;;7.55;6.88;;;;;;;;;;10141643;28;20089;-59
2022/07/26 20:10:21;;;;;;;8.90;7.60;;;;;;;;;;10116980;28;20054;-58
2022/07/26 20:15:28;;;;;;;10.07;7.30;;;;;;;;;;10145523;28;20053;-58
2022/07/26 20:20:26;;;;;;;8.52;7.82;;;;;;;;;;10154738;28;20535;-59
2022/07/26 20:25:26;;;;;;;8.52;7.82;;;;;;;;;;10155328;28;20140;-58
2022/07/26 20:30:24;;;;;;;8.20;7.45;;;;;;;;;;10155683;28;20085;-58
2022/07/26 20:35:22;;;;;;;9.73;7.45;;;;;;;;;;10155218;28;20050;-58
2022/07/26 20:40:21;;;;;;;7.70;6.88;;;;;;;;;;10154726;28;20085;-58
2022/07/26 20:45:22;;;;;;;8.23;7.38;;;;;;;;;;10159108;28;20073;-58
2022/07/26 20:50:21;;;;;;;7.50;6.95;;;;;;;;;;10174698;28;20076;-58
2022/07/26 20:55:21;;;;;;;7.47;6.85;;;;;;;;;;10180429;28;20482;-58
2022/07/26 21:00:21;;;;;;;8.35;7.60;;;;;;;;;;10172672;28;20507;-59
2022/07/26 21:05:20;;;;;;;7.90;7.10;;;;;;;;;;10167314;28;20065;-59
2022/07/26 21:10:18;;;;;;;8.20;7.40;;;;;;;;;;10168805;28;20061;-59
2022/07/26 21:15:17;;;;;;;8.27;7.57;;;;;;;;;;10169267;28;20522;-59
2022/07/26 21:20:17;;;;;;;8.43;7.63;;;;;;;;;;10171872;28;20514;-59
2022/07/26 21:25:16;;;;;;;8.40;7.65;;;;;;;;;;10185700;28;20498;-59
2022/07/26 21:30:14;;;;;;;11.63;8.85;;;;;;;;;;10201955;28;20081;-59
2022/07/26 21:35:12;;;;;;;9.55;7.28;;;;;;;;;;10202034;28;20046;-59
2022/07/26 21:40:12;;;;;;;7.78;7.07;;;;;;;;;;10198990;28;20085;-59
2022/07/26 21:45:11;;;;;;;8.13;7.15;;;;;;;;;;10201293;28;20378;-59
2022/07/26 21:50:09;;;;;;;7.18;6.43;;;;;;;;;;10201045;28;20092;-59
2022/07/26 21:55:08;;;;;;;8.13;7.43;;;;;;;;;;10200485;28;20543;-59
2022/07/26 22:00:17;;;;;;;7.63;6.80;;;;;;;;;;10200744;28;20089;-59
2022/07/26 22:10:34;;;;;;;7.50;6.90;;;;;;;;;;10196934;28;20061;-58
2022/07/26 22:15:42;;;;;;;8.07;6.90;;;;;;;;;;10200428;28;20058;-59
2022/07/26 22:20:41;;;;;;;8.65;7.30;;;;;;;;;;10199250;28;20130;-59
2022/07/26 22:25:39;;;;;;;7.60;7.00;;;;;;;;;;10199766;28;20045;-59
2022/07/26 22:30:38;;;;;;;8.00;7.25;;;;;;;;;;10199242;28;20103;-59
2022/07/26 22:35:37;;;;;;;8.25;7.40;;;;;;;;;;10199496;28;20042;-58
2022/07/26 22:40:36;;;;;;;7.63;6.97;;;;;;;;;;10199328;28;20464;-58
2022/07/26 22:45:34;;;;;;;7.47;6.80;;;;;;;;;;10199096;28;20065;-59
2022/07/26 22:50:33;;;;;;;8.25;7.53;;;;;;;;;;10199025;28;20084;-58
2022/07/26 22:55:32;;;;;;;7.68;6.97;;;;;;;;;;10198591;28;20081;-58
2022/07/26 23:00:31;;;;;;;7.20;6.60;;;;;;;;;;10198687;28;20081;-59
2022/07/26 23:05:29;;;;;;;7.40;6.80;;;;;;;;;;10196621;28;20061;-59
2022/07/26 23:10:44;;;;;;;7.75;7.03;;;;;;;;;;10198031;28;20073;-59
2022/07/26 23:15:42;;;;;;;7.30;6.63;;;;;;;;;;10198005;28;20096;-59
2022/07/26 23:20:48;;;;;;;7.07;6.43;;;;;;;;;;10197410;28;20082;-59
2022/07/26 23:25:48;;;;;;;8.30;5.90;;;;;;;;;;10198040;28;20077;-58
2022/07/26 23:30:48;;;;;;;7.82;6.82;;;;;;;;;;10197475;28;20120;-59
2022/07/26 23:35:46;;;;;;;7.13;6.43;;;;;;;;;;10195876;28;20054;-59
2022/07/26 23:40:44;;;;;;;10.77;7.13;;;;;;;;;;10196507;28;20108;-58
2022/07/26 23:45:44;;;;;;;6.97;6.35;;;;;;;;;;10196746;28;20045;-59
2022/07/26 23:50:42;;;;;;;10.45;5.93;;;;;;;;;;10197008;28;20038;-59
2022/07/26 23:55:41;;;;;;;8.68;6.55;;;;;;;;;;10196526;28;20038;-59
